METAR Data
IDs: Format: Raw Decoded Include TAF

Data at: 0152 UTC 01 Feb 2023

METAR for:KAEJ (Buena Vista/Central, CO, US)
Text:KAEJ 010135Z AUTO 30013G17KT 10SM M03/M23 A3003 RMK AO2 T10351232
Temperature: -3.5°C ( 26°F)
Dewpoint:-23.2°C (-10°F) [RH = 20%]
Pressure (altimeter):30.03 inches Hg (1017.0 mb)
Winds:from the WNW (300 degrees) at 15 MPH (13 knots; 6.7 m/s) gusting to 20 MPH (17 knots; 8.7 m/s)
Visibility:10 or more sm (16+ km)
QC Flag:automated observation with no human augmentation